createdAt,value
2022-08-30T00:00:21.445Z,3.37
2022-08-30T00:01:25.386Z,3.27
2022-08-30T00:02:27.086Z,3.27
2022-08-30T00:03:31.412Z,3.97
2022-08-30T00:04:33.685Z,3.37
2022-08-30T00:05:39.532Z,3.60
2022-08-30T00:06:41.131Z,3.90
2022-08-30T00:07:43.797Z,3.87
2022-08-30T00:08:46.436Z,3.30
2022-08-30T00:09:49.078Z,3.50
2022-08-30T00:10:51.178Z,3.70
2022-08-30T00:11:53.731Z,3.27
2022-08-30T00:12:55.724Z,3.80
2022-08-30T00:13:58.853Z,4.07
2022-08-30T00:15:00.538Z,4.17
2022-08-30T00:16:04.773Z,3.60
2022-08-30T00:17:06.517Z,3.57
2022-08-30T00:18:10.140Z,3.60
2022-08-30T00:19:11.769Z,3.70
2022-08-30T00:20:17.588Z,4.27
2022-08-30T00:21:20.716Z,3.93
2022-08-30T00:22:23.560Z,4.07
2022-08-30T00:23:25.699Z,3.63
2022-08-30T00:24:28.823Z,3.80
2022-08-30T00:25:31.359Z,3.83
2022-08-30T00:26:33.930Z,3.43
2022-08-30T00:27:35.583Z,3.40
2022-08-30T00:28:38.270Z,3.60
2022-08-30T00:29:39.852Z,3.80
2022-08-30T00:30:42.991Z,3.90
2022-08-30T00:31:44.708Z,3.33
2022-08-30T00:32:48.045Z,3.30
2022-08-30T00:33:50.608Z,3.67
2022-08-30T00:34:54.418Z,3.20
2022-08-30T00:35:57.230Z,3.40
2022-08-30T00:37:00.855Z,3.40
2022-08-30T00:38:03.385Z,3.60
2022-08-30T00:39:06.348Z,3.53
2022-08-30T00:40:12.068Z,4.10
2022-08-30T00:41:13.876Z,3.53
2022-08-30T00:42:17.540Z,3.80
2022-08-30T00:43:23.120Z,3.90
2022-08-30T00:44:26.832Z,3.37
2022-08-30T00:45:31.937Z,3.53
2022-08-30T00:46:34.540Z,3.10
2022-08-30T00:47:36.234Z,3.37
2022-08-30T00:48:41.741Z,3.37
2022-08-30T00:49:47.183Z,3.47
2022-08-30T00:50:54.129Z,3.10
2022-08-30T00:51:56.576Z,3.50
2022-08-30T00:53:05.185Z,3.23
2022-08-30T00:54:07.830Z,3.47
2022-08-30T00:55:13.598Z,3.90
2022-08-30T00:56:16.055Z,3.50
2022-08-30T00:57:19.012Z,3.40
2022-08-30T00:58:27.245Z,3.73
2022-08-30T00:59:30.580Z,3.63
2022-08-30T01:00:32.521Z,4.00
2022-08-30T01:01:35.990Z,3.50
2022-08-30T01:02:39.065Z,3.50
2022-08-30T01:03:43.760Z,3.43
2022-08-30T01:04:46.181Z,4.00
2022-08-30T01:05:50.375Z,4.13
2022-08-30T01:06:52.945Z,4.30
2022-08-30T01:07:55.495Z,3.67
2022-08-30T01:08:58.714Z,3.40
2022-08-30T01:10:03.360Z,3.60
2022-08-30T01:11:05.449Z,3.70
2022-08-30T01:12:09.211Z,4.03
2022-08-30T01:13:13.801Z,4.10
2022-08-30T01:14:17.136Z,3.97
2022-08-30T01:15:18.924Z,3.87
2022-08-30T01:16:25.311Z,3.83
2022-08-30T01:17:29.556Z,3.93
2022-08-30T01:18:32.877Z,3.70
2022-08-30T01:19:48.343Z,3.80
2022-08-30T01:20:57.230Z,3.57
2022-08-30T01:22:06.579Z,4.30
2022-08-30T01:23:13.538Z,4.27
2022-08-30T01:24:16.743Z,3.67
2022-08-30T01:25:24.611Z,4.00
2022-08-30T01:26:28.585Z,3.63
2022-08-30T01:27:33.133Z,4.37
2022-08-30T01:28:35.342Z,4.13
2022-08-30T01:29:38.256Z,4.30
2022-08-30T01:30:40.337Z,4.17
2022-08-30T01:31:42.936Z,3.93
2022-08-30T01:32:47.573Z,5.33
2022-08-30T01:33:50.944Z,4.20
2022-08-30T01:34:52.612Z,4.27
2022-08-30T01:35:57.429Z,4.30
2022-08-30T01:37:02.389Z,4.27
2022-08-30T01:38:05.264Z,4.47
2022-08-30T01:39:10.187Z,4.23
2022-08-30T01:40:15.431Z,4.07
2022-08-30T01:41:19.468Z,4.00
2022-08-30T01:42:22.451Z,3.97
2022-08-30T01:43:24.186Z,3.80
2022-08-30T01:44:26.862Z,5.60
2022-08-30T01:45:31.967Z,3.97
2022-08-30T01:46:37.322Z,4.10
2022-08-30T01:47:40.553Z,4.10
2022-08-30T01:48:42.630Z,3.70
2022-08-30T01:49:55.624Z,4.40
2022-08-30T01:50:57.246Z,3.47
2022-08-30T01:52:01.083Z,3.70
2022-08-30T01:53:05.458Z,3.97
2022-08-30T01:54:09.647Z,4.10
2022-08-30T01:55:11.648Z,4.00
2022-08-30T01:56:14.792Z,4.07
2022-08-30T01:57:19.081Z,3.87
2022-08-30T01:58:22.386Z,4.40
2022-08-30T01:59:24.070Z,4.77
2022-08-30T02:00:26.917Z,4.17
2022-08-30T02:01:29.590Z,3.87
2022-08-30T02:02:35.408Z,4.67
2022-08-30T02:03:37.223Z,4.30
2022-08-30T02:04:39.859Z,3.80
2022-08-30T02:05:41.816Z,3.97
2022-08-30T02:06:45.177Z,4.80
2022-08-30T02:07:46.757Z,4.53
2022-08-30T02:08:51.327Z,4.43
2022-08-30T02:09:54.356Z,4.17
2022-08-30T02:10:58.012Z,4.20
2022-08-30T02:12:00.680Z,4.20
2022-08-30T02:13:02.991Z,4.57
2022-08-30T02:14:06.940Z,5.13
2022-08-30T02:15:09.994Z,4.47
2022-08-30T02:16:15.928Z,3.90
2022-08-30T02:17:19.324Z,4.20
2022-08-30T02:18:21.986Z,4.40
2022-08-30T02:19:23.722Z,3.83
2022-08-30T02:20:26.521Z,4.90
2022-08-30T02:21:28.178Z,3.80
2022-08-30T02:22:30.790Z,4.20
2022-08-30T02:23:32.483Z,4.47
2022-08-30T02:24:35.727Z,4.93
2022-08-30T02:25:39.120Z,4.60
2022-08-30T02:26:42.418Z,4.43
2022-08-30T02:27:44.501Z,3.87
2022-08-30T02:28:49.816Z,4.23
2022-08-30T02:29:53.531Z,4.17
2022-08-30T02:30:56.325Z,3.77
2022-08-30T02:31:58.207Z,4.47
2022-08-30T02:33:01.417Z,3.90
2022-08-30T02:34:04.413Z,4.47
2022-08-30T02:35:07.788Z,4.17
2022-08-30T02:36:09.702Z,4.43
2022-08-30T02:37:12.469Z,4.83
2022-08-30T02:38:14.338Z,4.00
2022-08-30T02:39:17.106Z,4.97
2022-08-30T02:40:19.406Z,4.10
2022-08-30T02:41:24.090Z,5.00
2022-08-30T02:42:25.668Z,4.40
2022-08-30T02:43:28.527Z,5.07
2022-08-30T02:44:30.136Z,4.60
2022-08-30T02:45:32.875Z,3.90
2022-08-30T02:46:35.301Z,5.10
2022-08-30T02:47:38.417Z,4.83
2022-08-30T02:48:40.142Z,4.80
2022-08-30T02:49:42.770Z,4.07
2022-08-30T02:50:47.038Z,4.60
2022-08-30T02:51:49.997Z,4.27
2022-08-30T02:52:52.007Z,5.00
2022-08-30T02:53:56.886Z,5.10
2022-08-30T02:54:59.697Z,4.43
2022-08-30T02:56:02.659Z,4.43
2022-08-30T02:57:06.651Z,4.80
2022-08-30T02:58:10.531Z,4.23
2022-08-30T02:59:12.117Z,4.57
2022-08-30T03:00:17.812Z,4.23
2022-08-30T03:01:19.734Z,4.47
2022-08-30T03:02:23.103Z,4.90
2022-08-30T03:03:25.277Z,5.37
2022-08-30T03:04:28.139Z,4.90
2022-08-30T03:05:31.369Z,5.20
2022-08-30T03:06:33.223Z,5.00
2022-08-30T03:07:35.901Z,4.70
2022-08-30T03:08:37.697Z,5.00
2022-08-30T03:09:40.704Z,4.50
2022-08-30T03:10:42.306Z,4.60
2022-08-30T03:11:45.476Z,4.97
2022-08-30T03:12:48.626Z,5.00
2022-08-30T03:13:51.249Z,4.57
2022-08-30T03:14:53.019Z,4.87
2022-08-30T03:15:55.646Z,4.53
2022-08-30T03:16:57.273Z,5.03
2022-08-30T03:17:59.903Z,5.20
2022-08-30T03:19:01.514Z,5.40
2022-08-30T03:20:05.718Z,5.77
2022-08-30T03:21:11.129Z,4.80
2022-08-30T03:22:14.193Z,5.03
2022-08-30T03:23:21.901Z,5.00
2022-08-30T03:24:24.754Z,5.23
2022-08-30T03:25:27.967Z,5.90
2022-08-30T03:26:30.526Z,4.90
2022-08-30T03:27:32.184Z,4.80
2022-08-30T03:28:36.108Z,5.03
2022-08-30T03:29:39.157Z,5.40
2022-08-30T03:30:41.783Z,5.40
2022-08-30T03:31:53.371Z,5.37
2022-08-30T03:32:56.395Z,5.53
2022-08-30T03:34:00.494Z,4.43
2022-08-30T03:35:03.276Z,5.30
2022-08-30T03:36:05.458Z,4.83
2022-08-30T03:37:08.061Z,5.50
2022-08-30T03:38:09.767Z,5.43
2022-08-30T03:39:13.908Z,5.30
2022-08-30T03:40:18.919Z,5.53
2022-08-30T03:41:21.612Z,4.87
2022-08-30T03:42:24.156Z,5.07
2022-08-30T03:43:27.425Z,5.00
2022-08-30T03:44:32.270Z,4.33
2022-08-30T03:45:34.945Z,5.33
2022-08-30T03:46:37.665Z,4.67
2022-08-30T03:47:41.062Z,4.63
2022-08-30T03:48:43.983Z,5.10
2022-08-30T03:49:46.557Z,5.00
2022-08-30T03:50:49.135Z,5.33
2022-08-30T03:51:52.271Z,5.50
2022-08-30T03:52:54.931Z,5.00
2022-08-30T03:53:56.553Z,5.30
2022-08-30T03:55:00.678Z,5.47
2022-08-30T03:56:02.996Z,5.87
2022-08-30T03:57:06.221Z,5.30
2022-08-30T03:58:07.894Z,4.70
2022-08-30T03:59:11.441Z,4.63
2022-08-30T04:00:16.691Z,4.97
2022-08-30T04:01:19.741Z,5.27
2022-08-30T04:02:22.587Z,5.23
2022-08-30T04:03:26.007Z,5.57
2022-08-30T04:04:28.949Z,5.40
2022-08-30T04:05:30.744Z,5.17
2022-08-30T04:06:33.276Z,5.43
2022-08-30T04:07:37.223Z,5.13
2022-08-30T04:08:40.175Z,5.53
2022-08-30T04:09:42.871Z,5.10
2022-08-30T04:10:45.522Z,4.87
2022-08-30T04:11:47.355Z,4.97
2022-08-30T04:12:50.348Z,5.07
2022-08-30T04:13:53.253Z,5.43
2022-08-30T04:14:56.211Z,5.53
2022-08-30T04:15:59.565Z,5.80
2022-08-30T04:17:02.336Z,5.50
2022-08-30T04:18:04.006Z,4.80
2022-08-30T04:19:06.849Z,5.00
2022-08-30T04:20:10.061Z,4.57
2022-08-30T04:21:15.672Z,5.90
2022-08-30T04:22:17.569Z,4.63
2022-08-30T04:23:20.629Z,4.53
2022-08-30T04:24:22.245Z,4.43
2022-08-30T04:25:24.858Z,5.20
2022-08-30T04:26:27.647Z,4.70
2022-08-30T04:27:32.352Z,4.97
2022-08-30T04:28:35.968Z,5.07
2022-08-30T04:29:37.584Z,5.00
2022-08-30T04:30:41.259Z,4.70
2022-08-30T04:31:44.355Z,5.10
2022-08-30T04:32:47.075Z,4.30
2022-08-30T04:33:49.267Z,4.60
2022-08-30T04:34:56.377Z,5.27
2022-08-30T04:36:03.466Z,5.50
2022-08-30T04:37:07.057Z,5.40
2022-08-30T04:38:13.491Z,4.73
2022-08-30T04:39:16.311Z,5.03
2022-08-30T04:40:18.491Z,5.10
2022-08-30T04:41:24.260Z,6.00
2022-08-30T04:42:26.423Z,4.90
2022-08-30T04:43:29.787Z,5.07
2022-08-30T04:44:31.980Z,5.67
2022-08-30T04:45:34.624Z,5.00
2022-08-30T04:46:36.547Z,4.40
2022-08-30T04:47:49.278Z,5.20
2022-08-30T04:48:50.945Z,4.73
2022-08-30T04:49:53.742Z,5.13
2022-08-30T04:50:55.379Z,5.90
2022-08-30T04:51:58.352Z,4.93
2022-08-30T04:52:59.973Z,6.00
2022-08-30T04:54:02.761Z,5.50
2022-08-30T04:55:05.317Z,5.57
2022-08-30T04:56:09.227Z,5.80
2022-08-30T04:57:10.860Z,5.33
2022-08-30T04:58:13.746Z,5.20
2022-08-30T04:59:15.446Z,4.80
2022-08-30T05:00:20.707Z,4.57
2022-08-30T05:01:25.141Z,5.30
2022-08-30T05:02:28.929Z,5.50
2022-08-30T05:03:31.980Z,4.60
2022-08-30T05:04:34.609Z,4.77
2022-08-30T05:05:42.579Z,5.13
2022-08-30T05:06:45.330Z,4.53
2022-08-30T05:07:47.118Z,5.10
2022-08-30T05:08:49.756Z,5.43
2022-08-30T05:09:51.376Z,5.57
2022-08-30T05:10:53.966Z,4.50
2022-08-30T05:11:55.570Z,4.90
2022-08-30T05:12:58.174Z,4.53
2022-08-30T05:13:59.784Z,5.47
2022-08-30T05:15:02.431Z,5.33
2022-08-30T05:16:06.519Z,5.00
2022-08-30T05:17:09.216Z,5.30
2022-08-30T05:18:14.065Z,5.90
2022-08-30T05:19:18.261Z,5.20
2022-08-30T05:20:20.092Z,5.17
2022-08-30T05:21:25.420Z,5.60
2022-08-30T05:22:27.157Z,5.53
2022-08-30T05:23:29.729Z,5.67
2022-08-30T05:24:32.617Z,4.80
2022-08-30T05:25:39.071Z,7.43
2022-08-30T05:26:41.846Z,5.87
2022-08-30T05:30:00.085Z,5.80
2022-08-30T05:31:01.921Z,6.23
2022-08-30T05:32:04.657Z,5.40
2022-08-30T05:33:06.643Z,5.90
2022-08-30T05:34:09.209Z,6.27
2022-08-30T05:35:13.909Z,5.40
2022-08-30T05:36:18.583Z,6.30
2022-08-30T05:37:20.260Z,5.73
2022-08-30T05:38:22.878Z,5.43
2022-08-30T05:39:24.619Z,5.27
2022-08-30T05:40:27.253Z,5.37
2022-08-30T05:41:31.984Z,5.53
2022-08-30T05:42:34.168Z,6.20
2022-08-30T05:43:37.423Z,5.40
2022-08-30T05:44:40.013Z,5.33
2022-08-30T05:45:46.987Z,5.70
2022-08-30T05:46:49.201Z,6.10
2022-08-30T05:47:51.783Z,6.77
2022-08-30T05:48:53.726Z,5.80
2022-08-30T05:49:56.423Z,5.63
2022-08-30T05:51:05.051Z,6.37
2022-08-30T05:52:07.868Z,5.53
2022-08-30T05:53:09.569Z,5.97
2022-08-30T05:54:13.425Z,5.33
2022-08-30T05:55:15.352Z,5.77
2022-08-30T05:56:20.458Z,6.47
2022-08-30T05:57:22.140Z,5.77
2022-08-30T05:58:25.007Z,6.53
2022-08-30T05:59:26.610Z,6.80
2022-08-30T06:00:30.336Z,5.50
2022-08-30T06:01:35.065Z,5.40
2022-08-30T06:02:37.832Z,5.87
2022-08-30T06:03:40.517Z,5.90
2022-08-30T06:04:42.084Z,6.07
2022-08-30T06:06:49.976Z,5.17
2022-08-30T06:07:52.719Z,5.90
2022-08-30T06:08:54.783Z,5.70
2022-08-30T06:09:57.369Z,5.50
2022-08-30T06:10:59.139Z,5.63
2022-08-30T06:12:01.741Z,6.50
2022-08-30T06:13:04.510Z,6.03
2022-08-30T06:14:06.704Z,5.63
2022-08-30T06:15:10.176Z,6.07
2022-08-30T06:16:13.463Z,5.63
2022-08-30T06:17:17.594Z,5.43
2022-08-30T06:18:19.717Z,5.50
2022-08-30T06:19:31.116Z,5.10
2022-08-30T06:20:32.911Z,5.50
2022-08-30T06:21:38.142Z,5.63
2022-08-30T06:22:42.078Z,6.10
2022-08-30T06:23:44.687Z,5.70
2022-08-30T06:24:57.289Z,6.20
2022-08-30T06:26:03.947Z,5.73
2022-08-30T06:27:06.658Z,5.03
2022-08-30T06:28:08.308Z,4.83
2022-08-30T06:29:12.910Z,5.70
2022-08-30T06:30:15.016Z,6.60
2022-08-30T06:31:23.579Z,6.00
2022-08-30T06:32:26.268Z,5.30
2022-08-30T06:33:27.876Z,5.47
2022-08-30T06:34:30.675Z,5.27
2022-08-30T06:35:38.255Z,5.80
2022-08-30T06:36:49.804Z,5.50
2022-08-30T06:37:52.814Z,6.10
2022-08-30T06:38:57.410Z,4.80
2022-08-30T06:40:01.499Z,5.50
2022-08-30T06:41:06.082Z,5.27
2022-08-30T06:42:08.831Z,5.00
2022-08-30T06:43:10.433Z,5.30
2022-08-30T06:44:13.143Z,6.77
2022-08-30T06:45:16.260Z,6.10
2022-08-30T06:46:20.695Z,6.33
2022-08-30T06:47:23.441Z,5.00
2022-08-30T06:48:25.153Z,5.87
2022-08-30T06:49:27.752Z,6.37
2022-08-30T06:50:29.594Z,4.90
2022-08-30T06:51:36.456Z,5.10
2022-08-30T06:52:38.586Z,5.77
2022-08-30T06:53:42.612Z,5.40
2022-08-30T06:54:45.914Z,5.00
2022-08-30T06:55:55.814Z,5.10
2022-08-30T06:56:59.057Z,5.07
2022-08-30T06:58:01.997Z,5.30
2022-08-30T06:59:09.184Z,5.80
2022-08-30T07:00:15.335Z,5.27
2022-08-30T07:01:20.178Z,6.00
2022-08-30T07:02:22.854Z,5.50
2022-08-30T07:03:27.209Z,5.90
2022-08-30T07:04:29.851Z,5.87
2022-08-30T07:05:32.963Z,5.67
2022-08-30T07:06:36.429Z,5.90
2022-08-30T07:07:38.071Z,5.97
2022-08-30T07:08:44.560Z,5.80
2022-08-30T07:09:48.698Z,5.57
2022-08-30T07:10:55.745Z,5.57
2022-08-30T07:12:02.955Z,5.47
2022-08-30T07:13:04.564Z,5.63
2022-08-30T07:14:08.049Z,5.93
2022-08-30T07:15:10.706Z,6.10
2022-08-30T07:16:15.482Z,5.33
2022-08-30T07:17:35.590Z,5.47
2022-08-30T07:18:54.670Z,5.80
2022-08-30T07:19:57.248Z,8.47
2022-08-30T07:21:05.322Z,6.10
2022-08-30T07:22:07.897Z,5.60
2022-08-30T07:23:09.749Z,5.70
2022-08-30T07:24:14.409Z,5.30
2022-08-30T07:25:17.360Z,5.00
2022-08-30T07:26:25.441Z,5.30
2022-08-30T07:27:27.170Z,5.43
2022-08-30T07:28:29.860Z,5.10
2022-08-30T07:29:32.429Z,7.10
2022-08-30T07:30:36.287Z,5.40
2022-08-30T07:31:39.026Z,5.60
2022-08-30T07:32:40.741Z,6.37
2022-08-30T07:33:43.716Z,6.57
2022-08-30T07:34:46.435Z,4.93
2022-08-30T07:35:48.759Z,5.60
2022-08-30T07:36:51.495Z,5.57
2022-08-30T07:37:53.199Z,5.80
2022-08-30T07:38:55.863Z,5.10
2022-08-30T07:39:58.974Z,5.33
2022-08-30T07:41:01.914Z,5.47
2022-08-30T07:42:04.091Z,4.90
2022-08-30T07:43:06.786Z,5.70
2022-08-30T07:44:10.062Z,6.30
2022-08-30T07:45:13.431Z,5.67
2022-08-30T07:46:17.156Z,5.17
2022-08-30T07:47:19.963Z,4.80
2022-08-30T07:48:21.700Z,4.73
2022-08-30T07:49:24.473Z,5.13
2022-08-30T07:50:26.083Z,5.27
2022-08-30T07:51:29.357Z,5.07
2022-08-30T07:52:31.756Z,5.27
2022-08-30T07:53:34.903Z,4.43
2022-08-30T07:54:38.857Z,4.87
2022-08-30T07:55:42.307Z,5.53
2022-08-30T07:56:45.658Z,5.27
2022-08-30T07:57:48.549Z,4.90
2022-08-30T07:58:52.106Z,5.07
2022-08-30T07:59:53.977Z,4.60
2022-08-30T08:00:59.311Z,5.10
2022-08-30T08:02:02.594Z,5.27
2022-08-30T08:03:07.287Z,4.90
2022-08-30T08:04:10.600Z,4.17
2022-08-30T08:05:17.296Z,5.27
2022-08-30T08:06:23.842Z,5.13
2022-08-30T08:07:25.419Z,5.53
2022-08-30T08:08:28.632Z,4.43
2022-08-30T08:09:30.709Z,4.80
2022-08-30T08:10:34.147Z,5.77
2022-08-30T08:11:40.645Z,5.37
2022-08-30T08:12:42.345Z,5.23
2022-08-30T08:13:52.838Z,5.93
2022-08-30T08:14:55.508Z,5.83
2022-08-30T08:15:58.223Z,5.10
2022-08-30T08:17:00.333Z,4.13
2022-08-30T08:18:02.913Z,4.60
2022-08-30T08:19:08.956Z,5.40
2022-08-30T08:20:11.916Z,4.43
2022-08-30T08:21:14.875Z,5.33
2022-08-30T08:22:21.268Z,4.90
2022-08-30T08:23:24.404Z,5.90
2022-08-30T08:24:26.060Z,5.10
2022-08-30T08:25:29.365Z,5.77
2022-08-30T08:26:34.181Z,5.00
2022-08-30T08:27:38.157Z,4.57
2022-08-30T08:28:40.861Z,4.80
2022-08-30T08:29:42.591Z,4.83
2022-08-30T08:30:48.249Z,4.90
2022-08-30T08:31:50.614Z,4.80
2022-08-30T08:32:53.970Z,4.10
2022-08-30T08:33:56.170Z,4.53
2022-08-30T08:34:58.882Z,4.20
2022-08-30T08:36:02.768Z,4.63
2022-08-30T08:37:05.181Z,4.93
2022-08-30T08:38:07.815Z,4.50
2022-08-30T08:39:09.707Z,3.70
2022-08-30T08:40:16.480Z,4.50
2022-08-30T08:41:36.147Z,4.50
2022-08-30T08:42:52.500Z,3.90
2022-08-30T08:43:54.389Z,3.87
2022-08-30T08:45:03.093Z,3.70
2022-08-30T08:46:15.834Z,4.50
2022-08-30T08:47:25.001Z,3.97
2022-08-30T08:48:51.978Z,4.03
2022-08-30T08:49:59.418Z,4.37
2022-08-30T08:51:21.533Z,3.67
2022-08-30T08:52:47.274Z,5.63
2022-08-30T08:53:58.767Z,4.10
2022-08-30T08:55:06.845Z,4.60
2022-08-30T08:56:15.077Z,4.10
2022-08-30T08:57:19.395Z,4.37
2022-08-30T08:58:28.985Z,3.90
2022-08-30T08:59:32.009Z,4.47
2022-08-30T09:00:33.745Z,4.17
2022-08-30T09:01:38.457Z,4.10
2022-08-30T09:02:43.442Z,4.50
2022-08-30T09:03:47.257Z,4.33
2022-08-30T09:04:52.996Z,4.00
2022-08-30T09:05:57.454Z,4.13
2022-08-30T09:07:03.826Z,4.03
2022-08-30T09:08:10.130Z,4.00
2022-08-30T09:09:13.784Z,3.73
2022-08-30T09:10:20.425Z,4.50
2022-08-30T09:11:32.364Z,4.07
2022-08-30T09:12:34.322Z,3.90
2022-08-30T09:13:38.319Z,4.13
2022-08-30T09:14:46.069Z,4.33
2022-08-30T09:15:52.437Z,3.97
2022-08-30T09:17:03.307Z,4.20
2022-08-30T09:18:11.398Z,4.33
2022-08-30T09:19:34.555Z,5.30
2022-08-30T09:20:41.053Z,3.40
2022-08-30T09:21:42.747Z,3.93
2022-08-30T09:22:46.746Z,3.60
2022-08-30T09:23:50.712Z,4.50
2022-08-30T09:24:56.743Z,4.00
2022-08-30T09:36:21.953Z,3.97
2022-08-30T09:37:39.002Z,4.00
2022-08-30T09:38:40.904Z,3.50
2022-08-30T09:39:45.701Z,4.60
2022-08-30T09:40:50.510Z,4.10
2022-08-30T09:41:53.216Z,4.00
2022-08-30T09:43:09.880Z,3.60
2022-08-30T09:44:19.012Z,3.50
2022-08-30T09:45:31.745Z,3.67
2022-08-30T09:46:33.571Z,3.30
2022-08-30T09:47:36.544Z,4.63
2022-08-30T09:48:44.027Z,3.60
2022-08-30T09:49:46.208Z,3.43
2022-08-30T09:50:55.946Z,3.93
2022-08-30T09:52:18.643Z,3.27
2022-08-30T09:53:25.342Z,3.63
2022-08-30T09:54:36.743Z,4.30
2022-08-30T09:55:55.508Z,4.20
2022-08-30T09:57:12.614Z,3.80
2022-08-30T09:58:23.909Z,3.17
2022-08-30T09:59:41.173Z,3.20
2022-08-30T10:00:53.803Z,4.03
2022-08-30T10:02:05.363Z,3.40
2022-08-30T10:03:40.124Z,3.37
2022-08-30T10:04:50.093Z,4.40
2022-08-30T10:05:59.763Z,4.53
2022-08-30T10:07:09.062Z,4.30
2022-08-30T10:08:19.735Z,4.30
2022-08-30T10:09:32.626Z,4.57
2022-08-30T10:10:45.263Z,3.80
2022-08-30T10:11:54.652Z,4.03
2022-08-30T10:13:04.934Z,3.43
2022-08-30T10:14:43.570Z,3.60
2022-08-30T10:15:51.094Z,3.63
2022-08-30T10:17:01.858Z,3.63
2022-08-30T10:18:13.665Z,4.47
2022-08-30T10:19:30.957Z,3.60
2022-08-30T10:20:39.741Z,3.40
2022-08-30T10:21:47.307Z,3.33
2022-08-30T10:22:55.836Z,3.67
2022-08-30T10:24:05.754Z,4.07
2022-08-30T10:25:12.362Z,3.70
2022-08-30T10:26:26.598Z,3.47
2022-08-30T10:27:39.618Z,3.10
2022-08-30T10:28:46.835Z,3.50
2022-08-30T10:29:54.594Z,3.80
2022-08-30T10:30:59.536Z,3.10
2022-08-30T10:32:07.343Z,3.10
2022-08-30T10:33:16.215Z,3.40
2022-08-30T10:34:24.747Z,4.03
2022-08-30T10:35:38.315Z,3.20
2022-08-30T10:36:45.479Z,4.10
2022-08-30T10:37:54.647Z,3.90
2022-08-30T10:38:59.824Z,3.47
2022-08-30T10:40:27.472Z,3.17
2022-08-30T10:41:36.424Z,3.30
2022-08-30T10:42:40.239Z,3.73
2022-08-30T10:43:51.014Z,3.47
2022-08-30T10:44:59.843Z,3.77
2022-08-30T10:46:05.647Z,3.10
2022-08-30T10:47:23.189Z,3.20
2022-08-30T10:48:31.776Z,3.33
2022-08-30T10:49:40.526Z,3.50
2022-08-30T10:50:47.056Z,3.50
2022-08-30T10:51:59.098Z,3.43
2022-08-30T10:53:10.543Z,3.30
2022-08-30T10:54:19.393Z,3.50
2022-08-30T10:55:26.596Z,3.47
2022-08-30T10:56:29.574Z,4.03
2022-08-30T10:57:32.358Z,3.63
2022-08-30T10:58:37.968Z,2.80
2022-08-30T10:59:47.470Z,3.57
2022-08-30T11:01:06.525Z,3.70
2022-08-30T11:02:36.362Z,4.00
2022-08-30T11:04:14.426Z,3.63
2022-08-30T11:05:32.194Z,4.00
2022-08-30T11:06:39.486Z,3.40
2022-08-30T11:07:52.101Z,3.53
2022-08-30T11:09:28.253Z,3.30
2022-08-30T11:10:42.848Z,2.90
2022-08-30T11:12:13.234Z,3.40
2022-08-30T11:13:19.331Z,3.43
2022-08-30T11:15:58.599Z,3.50
2022-08-30T11:17:02.600Z,3.57
2022-08-30T11:18:13.584Z,3.40
2022-08-30T11:19:24.326Z,3.97
2022-08-30T11:20:36.732Z,4.13
2022-08-30T11:21:40.775Z,3.30
2022-08-30T11:23:21.330Z,3.13
2022-08-30T11:24:27.087Z,3.63
2022-08-30T11:25:57.505Z,3.47
2022-08-30T11:27:03.051Z,4.03
2022-08-30T11:28:06.271Z,3.63
2022-08-30T11:29:09.149Z,3.93
2022-08-30T11:30:52.460Z,3.13
2022-08-30T11:31:55.440Z,3.40
2022-08-30T11:33:02.099Z,2.93
2022-08-30T11:34:12.715Z,3.40
2022-08-30T11:35:37.133Z,3.50
2022-08-30T11:37:09.661Z,2.87
2022-08-30T11:38:18.389Z,3.20
2022-08-30T11:41:10.485Z,3.13
2022-08-30T11:42:24.769Z,3.10
2022-08-30T11:43:51.011Z,3.90
2022-08-30T11:45:36.865Z,3.10
2022-08-30T11:46:42.394Z,3.10
2022-08-30T11:47:50.691Z,3.43
2022-08-30T11:48:55.956Z,3.90
2022-08-30T11:50:09.680Z,3.00
2022-08-30T11:51:50.887Z,3.20
2022-08-30T11:53:21.316Z,3.77
2022-08-30T11:54:34.064Z,3.17
2022-08-30T11:55:46.978Z,3.10
2022-08-30T11:56:57.716Z,3.20
2022-08-30T11:58:14.745Z,3.07
2022-08-30T11:59:28.224Z,2.87
2022-08-30T12:00:35.096Z,3.30
2022-08-30T12:01:51.619Z,2.90
2022-08-30T12:02:59.503Z,3.03
2022-08-30T12:04:06.678Z,3.50
2022-08-30T12:05:09.509Z,3.57
2022-08-30T12:06:12.384Z,3.43
2022-08-30T12:07:51.645Z,3.40
2022-08-30T12:08:57.871Z,2.77
2022-08-30T12:10:08.080Z,3.50
2022-08-30T12:11:59.731Z,3.30
2022-08-30T12:13:02.852Z,2.63
2022-08-30T12:14:09.107Z,3.13
2022-08-30T12:15:29.238Z,2.80
2022-08-30T12:16:58.933Z,3.20
2022-08-30T12:18:21.496Z,3.10
2022-08-30T12:19:24.997Z,2.70
2022-08-30T12:20:40.866Z,3.30
2022-08-30T12:21:45.277Z,3.10
2022-08-30T12:22:47.127Z,2.80
2022-08-30T12:23:55.219Z,2.50
2022-08-30T12:24:57.778Z,3.33
2022-08-30T12:26:20.821Z,2.70
2022-08-30T12:27:25.286Z,3.20
2022-08-30T12:28:27.820Z,3.10
2022-08-30T12:29:31.451Z,2.83
2022-08-30T12:30:38.479Z,3.07
2022-08-30T12:31:44.119Z,3.97
2022-08-30T12:32:47.716Z,2.93
2022-08-30T12:34:00.792Z,3.33
2022-08-30T12:35:05.596Z,2.90
2022-08-30T12:36:12.345Z,2.97
2022-08-30T12:37:24.167Z,3.67
2022-08-30T12:38:27.782Z,2.70
2022-08-30T12:39:33.056Z,3.83
2022-08-30T12:40:35.092Z,3.17
2022-08-30T12:41:43.479Z,3.10
2022-08-30T12:42:51.856Z,3.10
2022-08-30T12:43:55.837Z,3.63
2022-08-30T12:45:00.526Z,3.70
2022-08-30T12:46:07.675Z,2.90
2022-08-30T12:47:12.689Z,3.60
2022-08-30T12:48:20.249Z,2.57
2022-08-30T12:49:28.960Z,3.20
2022-08-30T12:50:35.453Z,2.70
2022-08-30T12:51:42.196Z,3.37
2022-08-30T12:52:47.718Z,3.13
2022-08-30T12:53:51.456Z,3.50
2022-08-30T12:54:56.770Z,2.70
2022-08-30T12:56:00.767Z,3.23
2022-08-30T12:57:25.604Z,2.80
2022-08-30T12:58:43.410Z,3.00
2022-08-30T12:59:58.537Z,3.37
2022-08-30T13:01:20.911Z,3.57
2022-08-30T13:02:25.442Z,3.50
2022-08-30T13:03:33.918Z,3.10
2022-08-30T13:04:37.362Z,2.73
2022-08-30T13:05:48.064Z,3.07
2022-08-30T13:06:52.329Z,2.97
2022-08-30T13:08:09.791Z,2.60
2022-08-30T13:09:26.847Z,3.27
2022-08-30T13:10:29.495Z,3.33
2022-08-30T13:11:31.235Z,2.80
2022-08-30T13:12:35.859Z,3.07
2022-08-30T13:13:40.885Z,2.93
2022-08-30T13:14:45.550Z,3.00
2022-08-30T13:15:49.120Z,3.00
2022-08-30T13:16:51.821Z,3.30
2022-08-30T13:18:14.136Z,3.50
2022-08-30T13:19:31.231Z,3.40
2022-08-30T13:20:35.264Z,2.70
2022-08-30T13:21:51.040Z,3.20
2022-08-30T13:23:06.030Z,2.63
2022-08-30T13:24:08.768Z,3.23
2022-08-30T13:25:11.571Z,2.80
2022-08-30T13:26:14.524Z,3.03
2022-08-30T13:27:27.146Z,3.00
2022-08-30T13:28:29.491Z,3.30
2022-08-30T13:29:32.127Z,3.93
2022-08-30T13:30:35.290Z,3.00
2022-08-30T13:31:37.002Z,3.03
2022-08-30T13:32:39.934Z,3.60
2022-08-30T13:33:41.602Z,3.00
2022-08-30T13:34:45.418Z,3.60
2022-08-30T13:35:49.418Z,3.33
2022-08-30T13:36:55.816Z,3.00
2022-08-30T13:38:00.704Z,3.50
2022-08-30T13:39:04.323Z,2.93
2022-08-30T13:40:07.973Z,3.13
2022-08-30T13:41:11.008Z,3.40
2022-08-30T13:44:09.369Z,3.10
2022-08-30T13:44:59.110Z,3.33
2022-08-30T13:46:01.044Z,3.07
2022-08-30T13:48:27.210Z,2.97
2022-08-30T13:49:46.363Z,2.90
2022-08-30T13:50:50.328Z,3.17
2022-08-30T13:52:18.592Z,2.90
2022-08-30T13:53:51.218Z,3.20
2022-08-30T13:54:39.048Z,2.63
2022-08-30T13:55:43.114Z,3.00
2022-08-30T13:56:44.854Z,2.60
2022-08-30T13:57:55.549Z,3.17
2022-08-30T13:58:57.929Z,3.10
2022-08-30T14:00:00.493Z,2.80
2022-08-30T14:01:03.157Z,3.13
2022-08-30T14:02:08.526Z,3.33
2022-08-30T14:03:11.445Z,2.60
2022-08-30T14:04:13.542Z,2.87
2022-08-30T14:05:46.836Z,3.37
2022-08-30T14:08:05.145Z,3.43
2022-08-30T14:09:10.509Z,3.33
2022-08-30T14:11:37.334Z,3.37
2022-08-30T14:12:58.880Z,3.20
2022-08-30T14:14:28.549Z,3.50
2022-08-30T14:15:24.609Z,3.33
2022-08-30T14:16:27.734Z,3.50
2022-08-30T14:17:33.002Z,3.80
2022-08-30T14:18:36.034Z,3.50
2022-08-30T14:19:39.986Z,3.20
2022-08-30T14:20:42.008Z,3.43
2022-08-30T14:21:49.200Z,3.63
2022-08-30T14:22:51.613Z,2.87
2022-08-30T14:23:55.796Z,3.70
2022-08-30T14:24:57.511Z,2.90
2022-08-30T14:26:02.808Z,3.00
2022-08-30T14:27:05.468Z,3.70
2022-08-30T14:28:07.183Z,3.37
2022-08-30T14:29:11.943Z,3.13
2022-08-30T14:30:16.722Z,2.97
2022-08-30T14:31:21.769Z,3.47
2022-08-30T14:32:24.615Z,3.70
2022-08-30T14:33:26.297Z,3.67
2022-08-30T14:34:29.598Z,3.43
2022-08-30T14:35:31.261Z,3.50
2022-08-30T14:36:36.250Z,3.50
2022-08-30T14:37:39.311Z,3.40
2022-08-30T14:38:42.743Z,4.10
2022-08-30T14:39:45.437Z,3.00
2022-08-30T14:40:47.040Z,3.40
2022-08-30T14:41:52.546Z,3.67
2022-08-30T14:42:54.265Z,4.30
2022-08-30T14:43:56.920Z,3.43
2022-08-30T14:44:58.566Z,3.10
2022-08-30T14:46:02.133Z,3.00
2022-08-30T14:47:05.753Z,3.07
2022-08-30T14:48:11.477Z,2.83
2022-08-30T14:49:16.423Z,3.20
2022-08-30T14:50:19.620Z,3.63
2022-08-30T14:51:23.021Z,3.80
2022-08-30T14:52:26.290Z,3.40
2022-08-30T14:53:29.344Z,3.10
2022-08-30T14:54:34.689Z,3.40
2022-08-30T14:55:36.460Z,2.97
2022-08-30T14:56:40.456Z,3.90
2022-08-30T14:57:42.031Z,3.47
2022-08-30T14:58:45.385Z,3.53